Twijzelerheide, Netherlands
Current Conditions -  °F | °C
As of 7:59 AM on Friday 28 Nov 2014 (Local Time) from EHLW Reporting Station
Haze Haze  
Wind Chill: 29°   Ceiling: Unl
Heat Index: 37°   Visibility: 4mi
Dew Point: 34°   Wind: 13mph
Humidity: 87%   Direction: 100°E
Pressure: 29.83"   Gusts: NA
Location:  53.24°N, 6.05°E
Report Text: EHLW 280659Z AUTO 10011KT 6000 BR FEW240 03/01 Q1010 WHT 10012KT 6000 NSC
Loading
Personal Weather Stations






























Interactive Weather Map New forecast layout! Learn more

10-Day Weather Forecast

Advertisements
Track Severe Weather on mobile